Aviation Digital Data Service (ADDS)

Output produced by TAFs form (2357 UTC 18 February 2018)
found at http://www.aviationweather.gov/adds/tafs/
 
METAR text: ROAH 182330Z 14005KT 9999 FEW030 20/13 Q1019 RMK 1CU030 A3010
Conditions at: ROAH (NAHA (CIV/JASDF), JP) observed 2330 UTC 18 February 2018
Temperature: 20.0°C (68°F)
Dewpoint: 13.0°C (55°F) [RH = 64%]
Pressure (altimeter): 30.09 inches Hg (1019.0 mb)
Winds: from the SE (140 degrees) at 6 MPH (5 knots; 2.6 m/s)
Visibility: 6 or more miles (10+ km)
Ceiling: at least 12,000 feet AGL
Clouds: few clouds at 3000 feet AGL
Weather: no significant weather observed at this time

Forecast for: ROAH (NAHA (CIV/JASDF), JP)
Text: TAF ROAH 182305Z 1900/2006 19010KT 9999 FEW025 SCT035
Forecast period: 0000 UTC 19 February 2018 to 0600 UTC 20 February 2018
Forecast type: FROM: standard forecast or significant change
Winds: from the S (190 degrees) at 12 MPH (10 knots; 5.2 m/s)
Visibility: 6 or more miles (10+ km)
Clouds: few clouds at 2500 feet AGL
scattered clouds at 3500 feet AGL
Weather: no significant weather forecast for this period